Terminal Aerodrome Forecast
Issued by NWS Jackson, MS

Home | Current Version | Previous Version | Text Only | Print | Product List | Glossary On
Versions: 1 2 3 4 5 6 7 8 9 10 11 12 13 14 15 16 17 18 19 20
091
FTUS44 KMEG 280853 AAA
TAFTUP
TAF AMD
KTUP 280853Z 2809/2906 00000KT 6SM BR BKN030
      TEMPO 2809/2813 3SM BR OVC015
     FM281300 36003KT P6SM OVC009
     FM281900 01004KT P6SM OVC050
     FM290000 06004KT P6SM OVC100=

USA.gov is the U.S. government's official web portal to all federal, state and local government web resources and services.